Time;durP1;ratioP1;P1;durP2;ratioP2;P2;SDS_P1;SDS_P2;PMS_P1;PMS_P2;Temp;Humidity;BMP_temperature;BMP_pressure;BME280_temperature;BME280_humidity;BME280_pressure;Samples;Min_cycle;Max_cycle;Signal;HPM_P1;HPM_P2
2023/05/06 00:01:28;;;;;;;17.67;12.43;;;12.50;99.90;;;;;;5007448;28;20101;-81
2023/05/06 00:04:15;;;;;;;24.25;15.52;;;12.60;99.90;;;;;;4992976;28;20050;-83
2023/05/06 00:07:01;;;;;;;26.38;16.13;;;12.50;99.90;;;;;;4991049;28;20057;-79
2023/05/06 00:09:47;;;;;;;21.85;14.93;;;12.50;99.90;;;;;;5009685;28;20046;-80
2023/05/06 00:12:33;;;;;;;24.08;16.92;;;12.50;99.90;;;;;;4992283;28;20057;-80
2023/05/06 00:15:19;;;;;;;27.33;16.45;;;12.50;99.90;;;;;;4988656;28;20049;-79
2023/05/06 00:18:06;;;;;;;23.83;15.45;;;12.50;99.90;;;;;;4993446;28;20405;-79
2023/05/06 00:20:51;;;;;;;30.10;17.15;;;12.40;99.90;;;;;;4988724;28;20061;-80
2023/05/06 00:23:37;;;;;;;26.98;16.00;;;12.50;99.90;;;;;;4978880;28;20058;-79
2023/05/06 00:26:23;;;;;;;21.05;14.10;;;12.50;99.90;;;;;;4992899;28;20178;-80
2023/05/06 00:29:13;;;;;;;25.02;15.40;;;12.50;99.90;;;;;;4992697;28;20042;-80
2023/05/06 00:31:59;;;;;;;29.20;16.67;;;12.50;99.90;;;;;;5014493;28;20093;-79
2023/05/06 00:34:45;;;;;;;23.77;15.52;;;12.40;99.90;;;;;;4996892;28;20049;-80
2023/05/06 00:37:38;;;;;;;23.92;15.10;;;12.40;99.90;;;;;;5013293;28;20045;-79
2023/05/06 00:40:24;;;;;;;26.38;16.50;;;12.30;99.90;;;;;;4994985;28;20128;-79
2023/05/06 00:43:10;;;;;;;23.05;15.75;;;12.30;99.90;;;;;;4996352;28;20112;-80
2023/05/06 00:45:57;;;;;;;25.70;14.93;;;12.10;99.90;;;;;;4985487;28;20054;-80
2023/05/06 00:48:44;;;;;;;23.35;15.23;;;12.10;99.90;;;;;;4994194;28;20509;-81
2023/05/06 00:51:31;;;;;;;24.27;13.90;;;12.00;99.90;;;;;;4983007;28;20076;-79
2023/05/06 00:54:20;;;;;;;22.83;14.20;;;12.00;99.90;;;;;;4995135;28;20093;-80
2023/05/06 00:57:06;;;;;;;22.27;13.20;;;12.00;99.90;;;;;;4995088;28;20046;-80
2023/05/06 00:59:53;;;;;;;17.35;11.40;;;12.00;99.90;;;;;;4993600;28;20064;-80
2023/05/06 01:02:39;;;;;;;19.67;12.45;;;11.90;99.90;;;;;;4981874;28;20048;-82
2023/05/06 01:05:31;;;;;;;19.63;12.40;;;11.90;99.90;;;;;;4998610;28;20054;-78
2023/05/06 01:08:53;;;;;;;17.80;11.10;;;12.00;99.90;;;;;;5012675;28;20111;-79
2023/05/06 01:11:55;;;;;;;17.00;11.52;;;12.00;99.90;;;;;;4975829;28;20061;-79
2023/05/06 01:15:20;;;;;;;16.20;10.35;;;12.00;99.90;;;;;;4993976;28;20057;-78
2023/05/06 01:18:12;;;;;;;16.35;9.63;;;12.00;99.90;;;;;;5013536;28;20054;-80
2023/05/06 01:21:01;;;;;;;16.42;10.82;;;11.90;99.90;;;;;;4994820;28;20054;-78
2023/05/06 01:23:57;;;;;;;22.33;13.43;;;12.00;99.90;;;;;;4994548;28;20111;-79
2023/05/06 01:26:43;;;;;;;21.88;11.85;;;12.00;99.90;;;;;;4995935;28;20046;-79
2023/05/06 01:29:29;;;;;;;21.60;11.98;;;11.90;99.90;;;;;;4995214;28;20053;-79
2023/05/06 01:32:45;;;;;;;18.90;11.30;;;11.90;99.90;;;;;;5012287;28;20140;-79
2023/05/06 01:35:54;;;;;;;18.63;12.20;;;11.90;99.90;;;;;;4971767;28;20104;-79
2023/05/06 01:39:38;;;;;;;21.80;12.93;;;11.90;99.90;;;;;;4993992;28;20559;-79
2023/05/06 01:42:25;;;;;;;19.08;10.57;;;11.90;99.90;;;;;;4931517;29;20415;-78
2023/05/06 01:45:15;;;;;;;17.88;12.10;;;11.90;99.90;;;;;;4989266;28;20403;-80
2023/05/06 01:48:05;;;;;;;19.95;13.68;;;11.90;99.90;;;;;;4992933;28;20054;-80
2023/05/06 01:50:52;;;;;;;21.15;13.63;;;11.90;99.90;;;;;;4995087;28;20150;-79
2023/05/06 01:53:38;;;;;;;18.08;10.43;;;11.90;99.90;;;;;;4993349;28;20054;-79
2023/05/06 01:56:30;;;;;;;20.73;13.60;;;11.90;99.90;;;;;;5011909;28;20565;-79
2023/05/06 01:59:16;;;;;;;14.05;9.48;;;11.90;99.90;;;;;;4980395;28;20049;-80
2023/05/06 02:02:06;;;;;;;20.98;12.75;;;11.80;99.90;;;;;;5011816;28;20606;-79
2023/05/06 02:04:53;;;;;;;20.63;11.38;;;11.80;99.90;;;;;;4994290;28;20046;-79
2023/05/06 02:07:39;;;;;;;20.00;13.07;;;11.80;99.90;;;;;;4979746;28;20046;-80
2023/05/06 02:10:25;;;;;;;18.30;12.75;;;11.80;99.90;;;;;;4994412;28;20066;-80
2023/05/06 02:13:11;;;;;;;15.18;8.82;;;11.80;99.90;;;;;;4994349;28;20056;-78
2023/05/06 02:15:57;;;;;;;14.50;10.45;;;11.80;99.90;;;;;;4995015;28;20058;-80
2023/05/06 02:18:43;;;;;;;20.77;13.25;;;11.80;99.90;;;;;;4980534;28;20046;-78
2023/05/06 02:21:30;;;;;;;21.10;11.73;;;11.80;99.90;;;;;;4993882;28;20140;-79
2023/05/06 02:24:16;;;;;;;15.48;10.25;;;11.80;99.90;;;;;;4993679;28;20511;-80
2023/05/06 02:27:03;;;;;;;19.08;12.27;;;11.80;99.90;;;;;;5011060;28;20391;-80
2023/05/06 02:29:49;;;;;;;19.08;12.68;;;11.80;99.90;;;;;;4993465;28;20053;-79
2023/05/06 02:32:35;;;;;;;21.60;12.55;;;11.80;99.90;;;;;;4981158;28;20060;-79
2023/05/06 02:35:21;;;;;;;22.30;13.68;;;11.80;99.90;;;;;;4979986;28;20054;-78
2023/05/06 02:38:07;;;;;;;18.52;12.75;;;11.80;99.90;;;;;;4994041;28;20053;-79
2023/05/06 02:40:53;;;;;;;16.10;9.77;;;11.80;99.90;;;;;;4990552;28;20061;-81
2023/05/06 02:43:39;;;;;;;23.92;14.60;;;11.80;99.90;;;;;;4993396;28;20053;-80
2023/05/06 02:46:25;;;;;;;21.70;13.05;;;11.90;99.90;;;;;;4980020;28;20414;-80
2023/05/06 02:49:14;;;;;;;24.02;13.52;;;11.90;99.90;;;;;;5011646;28;20116;-81
2023/05/06 02:52:00;;;;;;;16.67;11.18;;;11.90;99.90;;;;;;4993938;28;20045;-81
2023/05/06 02:54:46;;;;;;;19.60;12.75;;;11.90;99.90;;;;;;4979595;28;20498;-81
2023/05/06 02:57:32;;;;;;;21.88;14.25;;;11.90;99.90;;;;;;5008946;28;20058;-82
2023/05/06 03:00:18;;;;;;;21.17;13.43;;;11.90;99.90;;;;;;4992153;28;20084;-81
2023/05/06 03:03:04;;;;;;;22.50;14.15;;;11.90;99.90;;;;;;5009772;28;20514;-78
2023/05/06 03:05:50;;;;;;;18.40;11.63;;;11.90;99.90;;;;;;4993482;28;20041;-80
2023/05/06 03:08:36;;;;;;;22.25;13.57;;;11.90;99.90;;;;;;4992458;28;20077;-80
2023/05/06 03:11:22;;;;;;;21.42;14.07;;;11.90;99.90;;;;;;4992173;28;20054;-80
2023/05/06 03:14:08;;;;;;;23.67;15.00;;;11.90;99.90;;;;;;4979299;28;20484;-79
2023/05/06 03:16:55;;;;;;;25.00;15.45;;;11.90;99.90;;;;;;4979180;28;20068;-78
2023/05/06 03:19:41;;;;;;;25.65;16.35;;;11.90;99.90;;;;;;4965528;28;20058;-80
2023/05/06 03:22:27;;;;;;;21.98;13.80;;;11.90;99.90;;;;;;4991931;28;20405;-80
2023/05/06 03:25:14;;;;;;;27.17;16.13;;;11.90;99.90;;;;;;4979006;28;20377;-81
2023/05/06 03:28:00;;;;;;;27.00;15.65;;;11.90;99.90;;;;;;4992448;28;20054;-77
2023/05/06 03:30:46;;;;;;;26.60;15.55;;;11.90;99.90;;;;;;4993905;28;20100;-80
2023/05/06 03:33:32;;;;;;;30.17;16.48;;;11.90;99.90;;;;;;4993158;28;20049;-79
2023/05/06 03:36:18;;;;;;;21.40;13.48;;;11.90;99.90;;;;;;4993024;28;20480;-81
2023/05/06 03:39:04;;;;;;;22.10;13.73;;;11.90;99.90;;;;;;5011569;28;20135;-80
2023/05/06 03:41:50;;;;;;;26.75;14.88;;;11.90;99.90;;;;;;5010119;28;20092;-79
2023/05/06 03:44:36;;;;;;;26.42;15.43;;;11.90;99.90;;;;;;5010526;28;20050;-80
2023/05/06 03:47:22;;;;;;;25.02;14.45;;;11.90;99.90;;;;;;5012509;28;20057;-80
2023/05/06 03:50:09;;;;;;;24.70;15.68;;;11.80;99.90;;;;;;4995004;28;20049;-80
2023/05/06 03:52:55;;;;;;;26.33;14.70;;;11.80;99.90;;;;;;4992182;28;20092;-79
2023/05/06 03:55:41;;;;;;;19.15;12.95;;;11.80;99.90;;;;;;4992605;28;20058;-79
2023/05/06 03:58:27;;;;;;;26.98;15.77;;;11.80;99.90;;;;;;4980601;28;20054;-81
2023/05/06 04:01:13;;;;;;;23.40;13.63;;;11.80;99.90;;;;;;4992784;28;20379;-81
2023/05/06 04:03:59;;;;;;;24.48;14.48;;;11.80;99.90;;;;;;4978968;28;20387;-80
2023/05/06 04:06:45;;;;;;;18.98;13.18;;;11.80;99.90;;;;;;4995960;28;20058;-81
2023/05/06 04:09:32;;;;;;;23.48;14.38;;;11.80;99.90;;;;;;4983144;28;20057;-81
2023/05/06 04:12:18;;;;;;;29.58;14.90;;;11.80;99.90;;;;;;4996930;28;20053;-80
2023/05/06 04:15:06;;;;;;;24.63;15.95;;;11.80;99.90;;;;;;4996988;28;20402;-80
2023/05/06 04:17:52;;;;;;;18.42;12.38;;;11.80;99.90;;;;;;4997225;28;20053;-81
2023/05/06 04:20:38;;;;;;;23.70;15.55;;;11.80;99.90;;;;;;5014428;28;20088;-79
2023/05/06 04:23:24;;;;;;;23.63;14.55;;;11.80;99.90;;;;;;5013851;28;20053;-82
2023/05/06 04:26:10;;;;;;;22.45;14.57;;;11.80;99.90;;;;;;4996210;28;20049;-80
2023/05/06 04:28:56;;;;;;;29.08;16.60;;;11.80;99.90;;;;;;4996464;28;20740;-80
2023/05/06 04:31:42;;;;;;;21.25;12.65;;;11.80;99.90;;;;;;4997086;28;20057;-80
2023/05/06 04:34:28;;;;;;;18.02;12.45;;;11.80;99.90;;;;;;4983033;28;20053;-82
2023/05/06 04:37:14;;;;;;;28.40;14.93;;;11.80;99.90;;;;;;4982694;28;20251;-81
2023/05/06 04:40:01;;;;;;;21.63;13.70;;;11.80;99.90;;;;;;4983334;28;20089;-79
2023/05/06 04:42:47;;;;;;;29.02;17.00;;;11.80;99.90;;;;;;4995646;28;20053;-81
2023/05/06 04:45:36;;;;;;;22.20;13.70;;;11.90;99.90;;;;;;4994996;28;20089;-79
2023/05/06 04:48:22;;;;;;;24.98;15.43;;;11.90;99.90;;;;;;4996767;28;20422;-79
2023/05/06 04:51:08;;;;;;;25.33;14.63;;;12.00;99.90;;;;;;4983157;28;20081;-78
2023/05/06 04:53:54;;;;;;;29.10;15.70;;;12.00;99.90;;;;;;4996163;28;20054;-81
2023/05/06 04:56:40;;;;;;;34.58;19.55;;;12.00;99.90;;;;;;4995207;28;20061;-80
2023/05/06 04:59:26;;;;;;;27.77;17.50;;;12.00;99.90;;;;;;4982303;28;20500;-79
2023/05/06 05:02:12;;;;;;;25.83;16.55;;;12.00;99.90;;;;;;4981780;28;20112;-79
2023/05/06 05:04:58;;;;;;;27.27;15.77;;;12.00;99.90;;;;;;4995895;28;20390;-80
2023/05/06 05:07:44;;;;;;;31.00;17.60;;;12.00;99.90;;;;;;4995906;28;20065;-81
2023/05/06 05:10:31;;;;;;;24.80;15.48;;;12.10;99.90;;;;;;4998287;28;20111;-80
2023/05/06 05:13:17;;;;;;;27.85;15.38;;;12.10;99.90;;;;;;4981836;28;20133;-80
2023/05/06 05:16:05;;;;;;;28.77;17.50;;;12.10;99.90;;;;;;5011569;28;20061;-79
2023/05/06 05:18:51;;;;;;;22.92;13.27;;;12.10;99.90;;;;;;4995245;28;20057;-81
2023/05/06 05:21:43;;;;;;;26.23;16.58;;;12.10;99.90;;;;;;5013495;28;20042;-79
2023/05/06 05:24:32;;;;;;;25.60;14.85;;;12.10;99.90;;;;;;4983177;28;20402;-81
2023/05/06 05:27:21;;;;;;;26.42;14.60;;;12.10;99.90;;;;;;4995861;28;20085;-79
2023/05/06 05:30:07;;;;;;;23.80;13.23;;;12.10;99.90;;;;;;5013206;28;20058;-80
2023/05/06 05:32:54;;;;;;;20.10;12.65;;;12.20;99.90;;;;;;5012854;28;20061;-78
2023/05/06 05:35:40;;;;;;;26.25;16.10;;;12.20;99.90;;;;;;4981700;28;20208;-78
2023/05/06 05:38:26;;;;;;;24.92;14.23;;;12.20;99.90;;;;;;4998343;28;20530;-79
2023/05/06 05:41:13;;;;;;;22.90;13.88;;;12.30;99.90;;;;;;5011919;28;20494;-79
2023/05/06 05:43:58;;;;;;;27.52;16.67;;;12.30;99.90;;;;;;4981638;28;20518;-80
2023/05/06 05:46:45;;;;;;;23.42;15.45;;;12.40;99.90;;;;;;4981494;28;20425;-79
2023/05/06 05:49:31;;;;;;;25.92;15.77;;;12.30;99.90;;;;;;4980338;28;20560;-80
2023/05/06 05:52:17;;;;;;;25.88;15.20;;;12.30;99.90;;;;;;4995080;28;20053;-79
2023/05/06 05:55:03;;;;;;;28.88;16.90;;;12.40;99.90;;;;;;4994143;28;20453;-81
2023/05/06 05:57:50;;;;;;;25.90;15.88;;;12.60;99.90;;;;;;4995045;28;20449;-80
2023/05/06 06:00:48;;;;;;;23.95;16.42;;;12.80;99.90;;;;;;5012420;28;20192;-79
2023/05/06 06:03:34;;;;;;;24.77;14.68;;;13.10;99.90;;;;;;4997292;28;20085;-78
2023/05/06 06:06:23;;;;;;;24.63;14.95;;;13.40;99.90;;;;;;5010560;28;20057;-79
2023/05/06 06:09:09;;;;;;;20.67;12.77;;;13.50;99.90;;;;;;4992618;28;20054;-78
2023/05/06 06:11:56;;;;;;;22.30;14.18;;;13.60;99.90;;;;;;4993667;28;20046;-79
2023/05/06 06:14:46;;;;;;;21.73;14.00;;;13.60;99.90;;;;;;4997340;28;20129;-80
2023/05/06 06:17:33;;;;;;;22.10;14.27;;;13.60;99.90;;;;;;4981838;28;20061;-80
2023/05/06 06:20:22;;;;;;;17.98;12.98;;;13.60;99.90;;;;;;4998052;28;20074;-80
2023/05/06 06:23:08;;;;;;;22.55;13.63;;;13.50;99.90;;;;;;4981265;28;20052;-82
2023/05/06 06:25:57;;;;;;;20.75;13.30;;;13.50;99.90;;;;;;4994628;28;20412;-81
2023/05/06 06:28:45;;;;;;;17.20;11.50;;;13.40;99.90;;;;;;4992990;28;20061;-80
2023/05/06 06:31:32;;;;;;;23.30;13.43;;;13.30;99.90;;;;;;4993601;28;20049;-79
2023/05/06 06:34:18;;;;;;;19.50;11.20;;;13.20;99.90;;;;;;5011158;28;20050;-83
2023/05/06 06:37:08;;;;;;;17.55;12.50;;;13.20;99.90;;;;;;4979589;28;20058;-80
2023/05/06 06:39:54;;;;;;;16.98;12.10;;;13.10;99.90;;;;;;4993521;28;20148;-81
2023/05/06 06:42:40;;;;;;;17.15;12.57;;;13.10;99.90;;;;;;4993775;28;20478;-78
2023/05/06 06:45:27;;;;;;;22.38;12.82;;;13.10;99.90;;;;;;4994067;28;20458;-80
2023/05/06 06:48:13;;;;;;;22.38;13.90;;;13.40;99.90;;;;;;4993865;28;20401;-79
2023/05/06 06:50:59;;;;;;;18.05;12.10;;;13.60;99.90;;;;;;4997400;28;20111;-79
2023/05/06 06:53:47;;;;;;;20.95;13.23;;;13.80;99.90;;;;;;4992332;28;20062;-80
2023/05/06 06:56:34;;;;;;;19.65;11.30;;;14.10;99.90;;;;;;4995459;28;20053;-79
2023/05/06 06:59:20;;;;;;;18.40;11.10;;;14.30;99.90;;;;;;4995932;28;20061;-79
2023/05/06 07:02:06;;;;;;;16.20;9.98;;;14.40;99.90;;;;;;4995699;28;20046;-81
2023/05/06 07:04:52;;;;;;;16.13;10.43;;;14.40;99.90;;;;;;5011205;28;20046;-79
2023/05/06 07:07:38;;;;;;;16.38;9.68;;;14.50;99.90;;;;;;4993021;28;20057;-79
2023/05/06 07:10:25;;;;;;;13.32;9.05;;;14.60;99.90;;;;;;5009129;28;20062;-79
2023/05/06 07:13:11;;;;;;;13.40;8.25;;;14.80;99.90;;;;;;4997020;28;20054;-80
2023/05/06 07:15:57;;;;;;;12.35;8.57;;;14.90;99.90;;;;;;4991565;28;20137;-80
2023/05/06 07:18:44;;;;;;;11.75;7.70;;;15.00;99.90;;;;;;5011631;28;20054;-80
2023/05/06 07:21:32;;;;;;;14.18;6.68;;;14.90;99.90;;;;;;5009886;28;20056;-80
2023/05/06 07:24:18;;;;;;;13.32;7.93;;;14.90;99.90;;;;;;4993355;28;20100;-80
2023/05/06 07:27:04;;;;;;;13.93;7.93;;;14.90;99.90;;;;;;4967183;28;20149;-80
2023/05/06 07:29:50;;;;;;;11.57;6.93;;;15.00;99.90;;;;;;4980277;28;20061;-80
2023/05/06 07:32:36;;;;;;;11.23;6.88;;;15.00;99.90;;;;;;5010492;28;20405;-80
2023/05/06 07:35:23;;;;;;;9.23;5.43;;;15.10;99.90;;;;;;4992327;28;20056;-80
2023/05/06 07:38:09;;;;;;;9.98;6.13;;;15.10;99.90;;;;;;4992720;28;20066;-80
2023/05/06 07:40:55;;;;;;;9.63;6.15;;;15.20;99.90;;;;;;4991950;28;20065;-81
2023/05/06 07:43:42;;;;;;;10.23;6.00;;;15.20;99.90;;;;;;5010053;28;20065;-81
2023/05/06 07:46:28;;;;;;;12.23;6.82;;;15.20;99.90;;;;;;4993629;28;20206;-80
2023/05/06 07:49:16;;;;;;;9.27;6.22;;;15.50;99.90;;;;;;5010256;28;20148;-80
2023/05/06 07:52:03;;;;;;;10.02;6.03;;;15.60;99.90;;;;;;5010688;28;20505;-80
2023/05/06 07:54:50;;;;;;;10.02;6.32;;;15.60;99.90;;;;;;4966200;28;20140;-80
2023/05/06 07:57:36;;;;;;;10.02;6.15;;;15.70;99.90;;;;;;4995212;28;20058;-81
2023/05/06 08:00:22;;;;;;;9.23;6.43;;;15.70;99.90;;;;;;5010359;28;20140;-80
2023/05/06 08:03:09;;;;;;;9.63;5.70;;;15.90;99.90;;;;;;4992835;28;20046;-80
2023/05/06 08:05:55;;;;;;;9.75;6.15;;;15.90;99.90;;;;;;4992234;28;20041;-80
2023/05/06 08:08:45;;;;;;;7.70;5.28;;;16.00;99.90;;;;;;4978897;28;20058;-80
2023/05/06 08:11:31;;;;;;;11.05;6.35;;;16.20;99.90;;;;;;4995724;28;20379;-81
2023/05/06 08:14:17;;;;;;;11.98;6.55;;;16.40;99.90;;;;;;4996354;28;20569;-81
2023/05/06 08:17:03;;;;;;;8.95;5.93;;;16.50;99.90;;;;;;5009532;28;20104;-80
2023/05/06 08:19:49;;;;;;;8.50;6.10;;;16.70;99.90;;;;;;4978467;28;20049;-80
2023/05/06 08:22:36;;;;;;;9.98;5.40;;;16.90;99.90;;;;;;4992086;28;20498;-81
2023/05/06 08:25:22;;;;;;;12.48;5.70;;;17.10;99.90;;;;;;5009173;28;20053;-80
2023/05/06 08:28:08;;;;;;;8.13;5.35;;;17.10;99.90;;;;;;4991108;28;20074;-79
2023/05/06 08:30:54;;;;;;;8.85;5.75;;;17.20;99.90;;;;;;4994902;28;20514;-80
2023/05/06 08:33:40;;;;;;;9.63;5.28;;;17.30;99.90;;;;;;5009421;28;20085;-80
2023/05/06 08:36:26;;;;;;;12.82;5.55;;;17.40;99.90;;;;;;4979175;28;20556;-79
2023/05/06 08:39:13;;;;;;;10.55;5.53;;;17.70;99.90;;;;;;5009220;28;20492;-76
2023/05/06 08:42:00;;;;;;;12.70;6.30;;;18.10;99.90;;;;;;4993566;28;20054;-74
2023/05/06 08:44:47;;;;;;;16.13;5.82;;;18.50;99.90;;;;;;4993421;28;20065;-77
2023/05/06 08:47:34;;;;;;;14.75;5.07;;;18.80;99.90;;;;;;4993083;28;20695;-81
2023/05/06 08:50:20;;;;;;;8.80;4.47;;;18.90;99.90;;;;;;5009848;28;20046;-73
2023/05/06 08:53:08;;;;;;;7.60;4.68;;;19.00;99.90;;;;;;4996457;28;20050;-75
2023/05/06 08:56:00;;;;;;;7.70;4.55;;;19.20;99.90;;;;;;4979411;28;20085;-84
2023/05/06 08:58:49;;;;;;;9.30;5.45;;;19.30;99.90;;;;;;4976020;28;20483;-79
2023/05/06 09:01:35;;;;;;;9.60;5.43;;;19.50;99.90;;;;;;4987463;28;20477;-91
2023/05/06 09:04:21;;;;;;;9.57;4.85;;;19.40;99.90;;;;;;4996429;28;20068;-89
2023/05/06 09:07:08;;;;;;;9.70;4.78;;;19.50;99.90;;;;;;4995867;28;20082;-87
2023/05/06 09:09:54;;;;;;;15.80;5.40;;;19.60;99.90;;;;;;4996957;28;20049;-79
2023/05/06 09:12:40;;;;;;;24.42;5.88;;;19.90;99.90;;;;;;4996041;28;20054;-84
2023/05/06 09:15:37;;;;;;;11.65;5.22;;;20.10;99.90;;;;;;4983055;28;20065;-87
2023/05/06 09:18:23;;;;;;;11.52;5.25;;;20.30;99.90;;;;;;4994945;28;20064;-81
2023/05/06 09:21:11;;;;;;;55.83;8.63;;;20.50;99.90;;;;;;4996274;28;20085;-84
2023/05/06 09:23:57;;;;;;;38.60;8.18;;;20.80;99.90;;;;;;4983643;28;20080;-86
2023/05/06 09:26:45;;;;;;;10.63;5.32;;;20.80;99.90;;;;;;4994318;28;20801;-79
2023/05/06 09:29:31;;;;;;;12.40;5.70;;;20.80;99.90;;;;;;4996563;28;20482;-82
2023/05/06 09:32:20;;;;;;;8.13;5.03;;;20.80;99.90;;;;;;5014738;28;20041;-91
2023/05/06 09:35:08;;;;;;;8.70;5.22;;;20.90;99.90;;;;;;4983462;28;20137;-90
2023/05/06 09:37:55;;;;;;;7.65;4.95;;;20.90;99.90;;;;;;5012682;28;20054;-88
2023/05/06 09:40:44;;;;;;;12.48;5.68;;;20.90;99.90;;;;;;4998781;28;20085;-91
2023/05/06 09:43:30;;;;;;;10.45;4.95;;;21.00;99.90;;;;;;4994693;28;20053;-83
2023/05/06 09:46:16;;;;;;;10.38;5.10;;;21.20;99.90;;;;;;5010486;28;20481;-92
2023/05/06 09:49:03;;;;;;;14.50;4.78;;;21.60;99.90;;;;;;4982449;28;20061;-87
2023/05/06 09:51:50;;;;;;;8.70;4.75;;;22.00;99.90;;;;;;4995767;28;20062;-93
2023/05/06 09:54:37;;;;;;;6.68;4.32;;;22.00;99.90;;;;;;4999947;28;20068;-87
2023/05/06 09:57:24;;;;;;;12.13;5.80;;;22.00;99.90;;;;;;4996770;28;20264;-89
2023/05/06 10:00:11;;;;;;;8.23;4.68;;;22.20;99.90;;;;;;4980837;28;20498;-77
2023/05/06 10:02:58;;;;;;;6.07;4.40;;;22.20;99.90;;;;;;4980169;28;20081;-79
2023/05/06 10:05:45;;;;;;;9.00;4.60;;;22.00;99.90;;;;;;4994334;28;20062;-77
2023/05/06 10:08:36;;;;;;;9.35;5.38;;;21.60;98.20;;;;;;4995320;28;20092;-81
2023/05/06 10:11:22;;;;;;;8.82;5.10;;;21.50;99.50;;;;;;4981933;28;20583;-81
2023/05/06 10:14:08;;;;;;;9.25;4.72;;;21.20;98.70;;;;;;4994576;28;20060;-80
2023/05/06 10:16:55;;;;;;;11.68;5.65;;;21.30;99.90;;;;;;4980366;28;20060;-82
2023/05/06 10:19:50;;;;;;;8.38;4.93;;;21.40;99.90;;;;;;5012698;28;20053;-81
2023/05/06 10:22:40;;;;;;;8.32;5.00;;;21.80;99.90;;;;;;4993669;28;20132;-87
2023/05/06 10:25:55;;;;;;;11.02;5.47;;;22.00;99.90;;;;;;4995816;28;20138;-87
2023/05/06 10:28:42;;;;;;;10.55;5.43;;;22.30;99.90;;;;;;4998442;28;20058;-84
2023/05/06 10:31:31;;;;;;;10.73;5.45;;;22.60;99.90;;;;;;4971434;28;20046;-86
2023/05/06 10:34:19;;;;;;;13.07;5.50;;;22.80;99.80;;;;;;5015957;28;20046;-89
2023/05/06 10:37:09;;;;;;;9.30;6.45;;;22.80;98.90;;;;;;5014374;28;20089;-84
2023/05/06 10:39:55;;;;;;;11.88;6.78;;;22.80;98.70;;;;;;4995401;28;20081;-86
2023/05/06 10:42:43;;;;;;;11.30;6.78;;;23.10;98.60;;;;;;5017330;28;20058;-84
2023/05/06 10:46:04;;;;;;;8.13;5.63;;;22.90;97.90;;;;;;4995044;28;20054;-89
2023/05/06 10:49:03;;;;;;;12.82;6.45;;;22.90;97.40;;;;;;4982482;28;20812;-83
2023/05/06 10:52:10;;;;;;;8.95;6.40;;;23.10;97.00;;;;;;4998667;28;20058;-83
2023/05/06 10:54:56;;;;;;;10.48;6.97;;;23.10;97.90;;;;;;4980813;28;20056;-81
2023/05/06 10:57:45;;;;;;;11.18;7.20;;;23.40;97.40;;;;;;4994712;28;20054;-84
2023/05/06 11:00:33;;;;;;;10.77;7.47;;;23.40;96.90;;;;;;4983132;28;20061;-82
2023/05/06 11:03:23;;;;;;;12.48;7.53;;;23.70;97.00;;;;;;4995294;28;20054;-81
2023/05/06 11:06:11;;;;;;;11.80;7.07;;;24.10;97.00;;;;;;4983482;28;20046;-82
2023/05/06 11:08:59;;;;;;;10.05;7.07;;;24.80;97.50;;;;;;4995028;28;20050;-84
2023/05/06 11:11:57;;;;;;;10.73;7.55;;;25.30;96.90;;;;;;4994973;28;20054;-82
2023/05/06 11:14:43;;;;;;;9.70;6.85;;;25.30;96.50;;;;;;4993864;28;20050;-82
2023/05/06 11:17:33;;;;;;;12.57;6.70;;;25.40;95.80;;;;;;4995319;28;20068;-83
2023/05/06 11:20:25;;;;;;;11.05;7.47;;;25.20;95.70;;;;;;4981200;28;20058;-84
2023/05/06 11:23:11;;;;;;;15.73;7.43;;;25.00;96.00;;;;;;4968518;28;20049;-83
2023/05/06 11:25:58;;;;;;;10.60;7.20;;;25.00;96.30;;;;;;5010825;28;20050;-86
2023/05/06 11:28:46;;;;;;;11.43;7.13;;;24.90;96.20;;;;;;4993795;28;20140;-85
2023/05/06 11:31:39;;;;;;;11.73;7.03;;;24.60;96.20;;;;;;4993984;28;20054;-84
2023/05/06 11:34:30;;;;;;;10.00;6.40;;;24.20;95.90;;;;;;4992811;28;20054;-83
2023/05/06 11:37:26;;;;;;;19.95;7.43;;;23.80;96.30;;;;;;4982103;28;20065;-89
2023/05/06 11:40:15;;;;;;;11.60;6.72;;;23.50;96.70;;;;;;4980311;28;20421;-83
2023/05/06 11:43:14;;;;;;;11.63;5.72;;;23.40;97.30;;;;;;4993173;28;20610;-79
2023/05/06 11:46:01;;;;;;;16.13;6.70;;;23.30;97.40;;;;;;5012908;28;20498;-88
2023/05/06 11:48:47;;;;;;;9.88;6.45;;;23.20;97.70;;;;;;5010373;28;20406;-87
2023/05/06 11:51:35;;;;;;;10.18;6.00;;;23.00;97.80;;;;;;4993997;28;20054;-84
2023/05/06 11:54:21;;;;;;;10.82;6.47;;;22.80;98.00;;;;;;4980012;28;20659;-83
2023/05/06 11:57:08;;;;;;;11.07;6.65;;;22.70;98.30;;;;;;4993015;28;20061;-84
2023/05/06 11:59:54;;;;;;;9.93;6.68;;;22.70;98.40;;;;;;4993302;28;20200;-84
2023/05/06 12:02:40;;;;;;;11.50;7.40;;;22.70;98.50;;;;;;4994507;28;20049;-88
2023/05/06 12:05:28;;;;;;;11.68;7.88;;;22.40;98.40;;;;;;4982521;28;20080;-82
2023/05/06 12:08:18;;;;;;;12.02;7.78;;;22.10;98.70;;;;;;4994707;28;20050;-82
2023/05/06 12:11:06;;;;;;;13.52;8.02;;;21.90;99.20;;;;;;4980019;28;20058;-82
2023/05/06 12:13:53;;;;;;;13.10;8.48;;;21.80;99.30;;;;;;4980198;28;20057;-81
2023/05/06 12:16:40;;;;;;;15.80;9.10;;;21.60;99.60;;;;;;4992192;28;20061;-80
2023/05/06 12:19:28;;;;;;;15.15;9.02;;;21.10;99.90;;;;;;5011249;28;20446;-76
2023/05/06 12:22:20;;;;;;;21.58;9.48;;;20.60;99.90;;;;;;5011543;28;20061;-80
2023/05/06 12:25:13;;;;;;;21.05;11.15;;;20.00;99.90;;;;;;4992189;28;20126;-81
2023/05/06 12:28:11;;;;;;;18.70;11.93;;;19.50;99.90;;;;;;4997242;28;20053;-77
2023/05/06 12:30:57;;;;;;;19.40;11.27;;;19.00;99.90;;;;;;5014723;28;20062;-77
2023/05/06 12:33:45;;;;;;;15.90;11.52;;;18.60;99.90;;;;;;4996591;28;20061;-79
2023/05/06 12:36:31;;;;;;;20.48;12.27;;;18.30;99.90;;;;;;5013413;28;20101;-79
2023/05/06 12:39:20;;;;;;;23.13;11.75;;;18.00;99.90;;;;;;4999262;28;20556;-75
2023/05/06 12:42:19;;;;;;;29.83;14.10;;;17.70;99.90;;;;;;5013914;28;20058;-82
2023/05/06 12:45:16;;;;;;;23.58;11.77;;;17.40;99.90;;;;;;4995651;28;20054;-86
2023/05/06 12:48:15;;;;;;;29.77;13.93;;;17.10;99.90;;;;;;4997918;28;20057;-77
2023/05/06 12:51:17;;;;;;;32.67;16.65;;;16.80;99.90;;;;;;4982381;28;20137;-81
2023/05/06 12:54:30;;;;;;;36.60;14.43;;;16.60;99.90;;;;;;4995544;28;20403;-82
2023/05/06 12:57:16;;;;;;;40.63;14.25;;;16.60;99.90;;;;;;4997133;28;20057;-81
2023/05/06 13:00:04;;;;;;;30.08;13.98;;;16.40;99.90;;;;;;4981741;28;20402;-86
2023/05/06 13:02:51;;;;;;;41.78;14.02;;;16.20;99.90;;;;;;4980544;28;20563;-77
2023/05/06 13:05:37;;;;;;;22.38;10.90;;;16.10;99.90;;;;;;4994115;28;20062;-82
2023/05/06 13:08:23;;;;;;;23.20;11.45;;;16.00;99.90;;;;;;5011432;28;20053;-82
2023/05/06 13:11:10;;;;;;;22.23;12.25;;;16.00;99.90;;;;;;4994998;28;20111;-80
2023/05/06 13:13:59;;;;;;;37.08;11.57;;;16.00;99.90;;;;;;5011716;28;20442;-78
2023/05/06 13:16:48;;;;;;;33.50;13.27;;;15.90;99.90;;;;;;4997302;28;20609;-80
2023/05/06 13:19:35;;;;;;;37.97;11.77;;;15.80;99.90;;;;;;4980825;28;20259;-80
2023/05/06 13:22:21;;;;;;;33.72;11.25;;;15.80;99.90;;;;;;4995541;28;20120;-77
2023/05/06 13:25:10;;;;;;;23.23;9.05;;;15.80;99.90;;;;;;4993049;28;20113;-80
2023/05/06 13:27:56;;;;;;;19.02;4.82;;;15.80;99.90;;;;;;4998392;28;20057;-85
2023/05/06 13:30:42;;;;;;;17.63;3.53;;;15.80;99.90;;;;;;4977678;28;20046;-76
2023/05/06 13:33:29;;;;;;;9.18;2.83;;;15.70;99.90;;;;;;5004802;28;20053;-79
2023/05/06 13:36:15;;;;;;;9.75;2.55;;;15.60;99.90;;;;;;4980851;28;20073;-82
2023/05/06 13:39:03;;;;;;;9.27;2.75;;;15.50;99.90;;;;;;5005368;28;20116;-79
2023/05/06 13:41:49;;;;;;;7.03;2.67;;;15.40;99.90;;;;;;5014449;28;20469;-80
2023/05/06 13:44:35;;;;;;;7.90;2.70;;;15.40;99.90;;;;;;4997961;28;20532;-85
2023/05/06 13:47:22;;;;;;;9.93;2.67;;;15.30;99.90;;;;;;4996051;28;20054;-87
2023/05/06 13:50:08;;;;;;;8.88;2.30;;;15.30;99.90;;;;;;4995685;28;20144;-75
2023/05/06 13:52:54;;;;;;;4.70;1.63;;;15.30;99.90;;;;;;4996807;28;20071;-79
2023/05/06 13:55:41;;;;;;;6.35;2.03;;;15.30;99.90;;;;;;5013665;28;20105;-75
2023/05/06 13:58:27;;;;;;;7.13;2.92;;;15.20;99.90;;;;;;4981684;28;20062;-84
2023/05/06 14:01:13;;;;;;;7.93;2.75;;;15.30;99.90;;;;;;4995759;28;20136;-76
2023/05/06 14:04:02;;;;;;;8.93;2.63;;;15.30;99.90;;;;;;5012072;28;20053;-89
2023/05/06 14:06:48;;;;;;;14.18;4.63;;;15.40;99.90;;;;;;5010914;28;20049;-88
2023/05/06 14:09:34;;;;;;;14.07;6.05;;;15.50;99.90;;;;;;4996405;28;20081;-90
2023/05/06 14:12:21;;;;;;;22.65;8.43;;;15.60;99.90;;;;;;4983566;28;20058;-92
2023/05/06 14:15:08;;;;;;;20.05;10.57;;;15.80;99.90;;;;;;4990895;28;20107;-83
2023/05/06 14:17:56;;;;;;;20.63;10.00;;;16.10;99.90;;;;;;4994694;28;20058;-87
2023/05/06 14:20:42;;;;;;;28.27;11.98;;;16.40;99.90;;;;;;4995323;28;20053;-85